createdAt,value
2022-11-27T00:02:04.411Z,6.20
2022-11-27T00:12:06.043Z,6.18
2022-11-27T00:22:07.378Z,6.06
2022-11-27T00:32:08.910Z,6.11
2022-11-27T00:42:10.318Z,5.98
2022-11-27T00:52:11.637Z,6.10
2022-11-27T01:02:13.002Z,5.93
2022-11-27T01:12:14.439Z,5.94
2022-11-27T01:22:15.779Z,5.91
2022-11-27T01:32:17.163Z,5.89
2022-11-27T01:42:18.519Z,5.83
2022-11-27T01:52:25.646Z,5.78
2022-11-27T02:02:27.206Z,5.68
2022-11-27T02:12:39.482Z,5.64
2022-11-27T02:23:13.830Z,5.62
2022-11-27T02:33:20.117Z,5.51
2022-11-27T02:43:28.566Z,5.46
2022-11-27T02:53:37.771Z,5.49
2022-11-27T03:03:44.457Z,5.41
2022-11-27T03:13:51.431Z,5.35
2022-11-27T03:23:53.130Z,5.27
2022-11-27T03:33:54.710Z,5.25
2022-11-27T03:44:25.959Z,5.20
2022-11-27T03:54:45.285Z,5.38
2022-11-27T04:04:46.622Z,5.27
2022-11-27T04:14:48.001Z,5.25
2022-11-27T04:24:49.469Z,5.35
2022-11-27T04:34:50.788Z,5.34
2022-11-27T04:44:52.158Z,5.44
2022-11-27T04:54:59.595Z,5.43
2022-11-27T05:05:01.507Z,5.55
2022-11-27T05:15:04.595Z,5.67
2022-11-27T05:25:06.470Z,5.71
2022-11-27T05:35:08.210Z,5.76
2022-11-27T05:45:09.923Z,5.74
2022-11-27T05:55:11.246Z,5.84
2022-11-27T06:05:12.607Z,5.78
2022-11-27T06:15:15.111Z,5.88
2022-11-27T06:25:16.910Z,5.90
2022-11-27T06:35:18.282Z,5.98
2022-11-27T06:45:19.601Z,6.00
2022-11-27T06:55:20.937Z,6.09
2022-11-27T07:05:24.659Z,6.11
2022-11-27T07:15:26.048Z,6.12
2022-11-27T07:25:27.501Z,6.23
2022-11-27T07:35:28.836Z,6.19
2022-11-27T07:45:30.224Z,6.29
2022-11-27T07:55:31.643Z,6.33
2022-11-27T08:05:38.050Z,6.44
2022-11-27T08:15:39.429Z,6.50
2022-11-27T08:25:40.819Z,6.65
2022-11-27T08:35:48.369Z,6.78
2022-11-27T08:45:50.195Z,6.90
2022-11-27T08:55:51.562Z,7.09
2022-11-27T09:05:52.887Z,7.26
2022-11-27T09:15:56.619Z,7.42
2022-11-27T09:26:02.996Z,7.53
2022-11-27T09:36:06.731Z,7.65
2022-11-27T09:46:17.503Z,7.81
2022-11-27T09:56:20.408Z,7.90
2022-11-27T10:06:33.846Z,8.10
2022-11-27T10:16:35.618Z,8.16
2022-11-27T10:26:46.420Z,8.35
2022-11-27T10:36:50.076Z,8.43
2022-11-27T10:46:55.175Z,8.47
2022-11-27T10:57:23.833Z,8.45
2022-11-27T11:07:28.575Z,8.42
2022-11-27T11:17:34.654Z,8.42
2022-11-27T11:27:36.534Z,8.44
2022-11-27T11:37:41.844Z,8.45
2022-11-27T11:47:53.511Z,8.51
2022-11-27T11:58:10.175Z,8.57
2022-11-27T12:08:33.188Z,8.61
2022-11-27T12:18:56.391Z,8.71
2022-11-27T12:29:26.116Z,8.75
2022-11-27T12:39:30.147Z,8.86
2022-11-27T12:49:46.526Z,8.95
2022-11-27T13:00:00.165Z,9.00
2022-11-27T13:10:10.355Z,9.05
2022-11-27T13:20:20.059Z,9.08
2022-11-27T13:30:24.647Z,9.07
2022-11-27T13:40:38.994Z,9.19
2022-11-27T13:50:45.352Z,9.23
2022-11-27T14:00:46.791Z,9.26
2022-11-27T14:10:55.482Z,9.29
2022-11-27T14:21:02.968Z,9.25
2022-11-27T14:31:04.960Z,9.15
2022-11-27T14:41:14.994Z,9.06
2022-11-27T14:51:18.929Z,8.99
2022-11-27T15:01:30.781Z,8.89
2022-11-27T15:11:54.391Z,8.75
2022-11-27T15:21:54.722Z,8.64
2022-11-27T15:31:56.555Z,8.53
2022-11-27T15:42:03.095Z,8.59
2022-11-27T15:52:04.595Z,8.56
2022-11-27T16:02:06.681Z,8.58
2022-11-27T16:12:08.094Z,8.60
2022-11-27T16:22:09.579Z,8.60
2022-11-27T16:32:11.182Z,8.61
2022-11-27T16:42:12.643Z,8.65
2022-11-27T16:52:14.155Z,8.55
2022-11-27T17:02:15.598Z,8.51
2022-11-27T17:12:17.072Z,8.47
2022-11-27T17:22:18.422Z,8.40
2022-11-27T17:32:19.805Z,8.37
2022-11-27T17:42:23.039Z,8.33
2022-11-27T17:52:24.459Z,8.25
2022-11-27T18:02:26.036Z,8.18
2022-11-27T18:12:27.539Z,8.13
2022-11-27T18:22:28.978Z,8.10
2022-11-27T18:32:30.726Z,8.10
2022-11-27T18:42:32.972Z,8.06
2022-11-27T18:52:34.601Z,8.04
2022-11-27T19:02:36.073Z,8.05
2022-11-27T19:12:37.462Z,8.04
2022-11-27T19:22:39.050Z,8.06
2022-11-27T19:32:40.377Z,8.04
2022-11-27T19:42:41.748Z,7.98
2022-11-27T19:52:43.186Z,8.04
2022-11-27T20:02:44.891Z,7.95
2022-11-27T20:12:46.473Z,7.95
2022-11-27T20:22:47.919Z,7.83
2022-11-27T20:32:49.336Z,7.87
2022-11-27T20:42:50.687Z,7.97
2022-11-27T20:52:52.192Z,7.94
2022-11-27T21:02:53.679Z,8.05
2022-11-27T21:12:55.081Z,8.03
2022-11-27T21:22:56.746Z,8.07
2022-11-27T21:32:58.167Z,8.13
2022-11-27T21:42:59.519Z,8.12
2022-11-27T21:53:00.858Z,8.19
2022-11-27T22:03:02.486Z,8.10
2022-11-27T22:13:03.865Z,8.06
2022-11-27T22:23:05.556Z,8.01
2022-11-27T22:33:06.919Z,7.79
2022-11-27T22:43:08.388Z,7.77
2022-11-27T22:53:09.723Z,7.75
2022-11-27T23:03:11.209Z,7.65
2022-11-27T23:13:13.300Z,7.64
2022-11-27T23:23:14.661Z,7.65
2022-11-27T23:33:16.003Z,7.69
2022-11-27T23:43:17.371Z,7.61
2022-11-27T23:53:18.711Z,7.64
